sensor_id;sensor_type;location;lat;lon;timestamp;P1;durP1;ratioP1;P2;durP2;ratioP2
40154;SDS011;25875;48.202;16.334;2023-05-07T00:02:20;4.30;;;3.03;;
40154;SDS011;25875;48.202;16.334;2023-05-07T00:04:47;5.13;;;3.47;;
40154;SDS011;25875;48.202;16.334;2023-05-07T00:07:14;3.50;;;2.92;;
40154;SDS011;25875;48.202;16.334;2023-05-07T00:09:41;3.83;;;2.95;;
40154;SDS011;25875;48.202;16.334;2023-05-07T00:12:08;5.53;;;2.90;;
40154;SDS011;25875;48.202;16.334;2023-05-07T00:14:35;6.32;;;3.50;;
40154;SDS011;25875;48.202;16.334;2023-05-07T00:17:03;4.32;;;3.38;;
40154;SDS011;25875;48.202;16.334;2023-05-07T00:19:30;3.67;;;2.80;;
40154;SDS011;25875;48.202;16.334;2023-05-07T00:21:57;4.30;;;3.00;;
40154;SDS011;25875;48.202;16.334;2023-05-07T00:24:24;4.78;;;3.03;;
40154;SDS011;25875;48.202;16.334;2023-05-07T00:26:51;5.28;;;2.97;;
40154;SDS011;25875;48.202;16.334;2023-05-07T00:29:18;4.88;;;3.28;;
40154;SDS011;25875;48.202;16.334;2023-05-07T00:31:46;4.18;;;3.45;;
40154;SDS011;25875;48.202;16.334;2023-05-07T00:34:14;4.07;;;2.95;;
40154;SDS011;25875;48.202;16.334;2023-05-07T00:36:41;4.53;;;3.35;;
40154;SDS011;25875;48.202;16.334;2023-05-07T00:39:08;5.05;;;3.53;;
40154;SDS011;25875;48.202;16.334;2023-05-07T00:41:34;4.75;;;4.03;;
40154;SDS011;25875;48.202;16.334;2023-05-07T00:44:01;5.00;;;3.85;;
40154;SDS011;25875;48.202;16.334;2023-05-07T00:46:28;4.55;;;3.58;;
40154;SDS011;25875;48.202;16.334;2023-05-07T00:48:57;5.28;;;4.05;;
40154;SDS011;25875;48.202;16.334;2023-05-07T00:51:27;4.97;;;3.50;;
40154;SDS011;25875;48.202;16.334;2023-05-07T00:53:55;4.72;;;3.45;;
40154;SDS011;25875;48.202;16.334;2023-05-07T00:56:22;8.00;;;4.07;;
40154;SDS011;25875;48.202;16.334;2023-05-07T00:58:50;5.20;;;3.65;;
40154;SDS011;25875;48.202;16.334;2023-05-07T01:01:17;5.40;;;3.40;;
40154;SDS011;25875;48.202;16.334;2023-05-07T01:03:45;3.90;;;3.10;;
40154;SDS011;25875;48.202;16.334;2023-05-07T01:06:11;4.90;;;3.75;;
40154;SDS011;25875;48.202;16.334;2023-05-07T01:08:43;4.10;;;2.97;;
40154;SDS011;25875;48.202;16.334;2023-05-07T01:11:11;4.43;;;2.88;;
40154;SDS011;25875;48.202;16.334;2023-05-07T01:13:38;4.07;;;2.38;;
40154;SDS011;25875;48.202;16.334;2023-05-07T01:16:06;3.42;;;2.30;;
40154;SDS011;25875;48.202;16.334;2023-05-07T01:18:33;3.22;;;2.53;;
40154;SDS011;25875;48.202;16.334;2023-05-07T01:21:00;3.58;;;2.40;;
40154;SDS011;25875;48.202;16.334;2023-05-07T01:23:32;3.30;;;2.38;;
40154;SDS011;25875;48.202;16.334;2023-05-07T01:26:00;4.13;;;2.42;;
40154;SDS011;25875;48.202;16.334;2023-05-07T01:28:27;2.65;;;1.92;;
40154;SDS011;25875;48.202;16.334;2023-05-07T01:30:54;3.35;;;2.17;;
40154;SDS011;25875;48.202;16.334;2023-05-07T01:33:26;3.53;;;2.15;;
40154;SDS011;25875;48.202;16.334;2023-05-07T01:35:57;3.13;;;1.98;;
40154;SDS011;25875;48.202;16.334;2023-05-07T01:38:27;3.17;;;2.22;;
40154;SDS011;25875;48.202;16.334;2023-05-07T01:40:56;3.65;;;1.90;;
40154;SDS011;25875;48.202;16.334;2023-05-07T01:43:24;3.40;;;1.80;;
40154;SDS011;25875;48.202;16.334;2023-05-07T01:45:51;2.97;;;2.00;;
40154;SDS011;25875;48.202;16.334;2023-05-07T01:48:19;2.60;;;1.80;;
40154;SDS011;25875;48.202;16.334;2023-05-07T01:50:46;2.70;;;1.92;;
40154;SDS011;25875;48.202;16.334;2023-05-07T01:53:13;3.55;;;2.75;;
40154;SDS011;25875;48.202;16.334;2023-05-07T01:55:40;3.50;;;2.10;;
40154;SDS011;25875;48.202;16.334;2023-05-07T01:58:08;2.70;;;2.08;;
40154;SDS011;25875;48.202;16.334;2023-05-07T02:00:35;5.25;;;3.92;;
40154;SDS011;25875;48.202;16.334;2023-05-07T02:03:02;4.13;;;3.45;;
40154;SDS011;25875;48.202;16.334;2023-05-07T02:05:29;3.72;;;2.55;;
40154;SDS011;25875;48.202;16.334;2023-05-07T02:07:56;3.00;;;2.20;;
40154;SDS011;25875;48.202;16.334;2023-05-07T02:10:23;4.20;;;2.28;;
40154;SDS011;25875;48.202;16.334;2023-05-07T02:12:50;3.10;;;2.25;;
40154;SDS011;25875;48.202;16.334;2023-05-07T02:15:18;2.92;;;2.10;;
40154;SDS011;25875;48.202;16.334;2023-05-07T02:17:57;4.32;;;2.10;;
40154;SDS011;25875;48.202;16.334;2023-05-07T02:20:25;3.05;;;2.10;;
40154;SDS011;25875;48.202;16.334;2023-05-07T02:22:52;3.80;;;2.22;;
40154;SDS011;25875;48.202;16.334;2023-05-07T02:25:18;3.30;;;2.53;;
40154;SDS011;25875;48.202;16.334;2023-05-07T02:27:45;4.40;;;2.22;;
40154;SDS011;25875;48.202;16.334;2023-05-07T02:30:12;3.40;;;2.33;;
40154;SDS011;25875;48.202;16.334;2023-05-07T02:32:41;3.10;;;2.33;;
40154;SDS011;25875;48.202;16.334;2023-05-07T02:35:08;3.00;;;2.20;;
40154;SDS011;25875;48.202;16.334;2023-05-07T02:37:34;3.63;;;2.55;;
40154;SDS011;25875;48.202;16.334;2023-05-07T02:40:01;4.93;;;2.92;;
40154;SDS011;25875;48.202;16.334;2023-05-07T02:42:29;3.45;;;2.50;;
40154;SDS011;25875;48.202;16.334;2023-05-07T02:44:56;6.95;;;2.90;;
40154;SDS011;25875;48.202;16.334;2023-05-07T02:47:22;3.80;;;2.47;;
40154;SDS011;25875;48.202;16.334;2023-05-07T02:49:53;4.22;;;2.78;;
40154;SDS011;25875;48.202;16.334;2023-05-07T02:52:21;3.30;;;2.50;;
40154;SDS011;25875;48.202;16.334;2023-05-07T02:54:48;4.57;;;3.20;;
40154;SDS011;25875;48.202;16.334;2023-05-07T02:57:14;3.35;;;2.60;;
40154;SDS011;25875;48.202;16.334;2023-05-07T02:59:41;3.88;;;2.97;;
40154;SDS011;25875;48.202;16.334;2023-05-07T03:02:08;4.20;;;2.70;;
40154;SDS011;25875;48.202;16.334;2023-05-07T03:04:35;3.97;;;3.03;;
40154;SDS011;25875;48.202;16.334;2023-05-07T03:07:03;8.23;;;3.38;;
40154;SDS011;25875;48.202;16.334;2023-05-07T03:09:29;3.70;;;3.00;;
40154;SDS011;25875;48.202;16.334;2023-05-07T03:11:56;3.80;;;3.03;;
40154;SDS011;25875;48.202;16.334;2023-05-07T03:14:23;4.78;;;4.03;;
40154;SDS011;25875;48.202;16.334;2023-05-07T03:16:50;5.38;;;4.28;;
40154;SDS011;25875;48.202;16.334;2023-05-07T03:19:16;4.43;;;3.38;;
40154;SDS011;25875;48.202;16.334;2023-05-07T03:21:43;4.80;;;3.15;;
40154;SDS011;25875;48.202;16.334;2023-05-07T03:24:11;4.78;;;3.58;;
40154;SDS011;25875;48.202;16.334;2023-05-07T03:26:38;4.72;;;3.75;;
40154;SDS011;25875;48.202;16.334;2023-05-07T03:29:05;5.05;;;4.00;;
40154;SDS011;25875;48.202;16.334;2023-05-07T03:31:31;4.28;;;3.67;;
40154;SDS011;25875;48.202;16.334;2023-05-07T03:33:58;4.10;;;3.38;;
40154;SDS011;25875;48.202;16.334;2023-05-07T03:36:25;5.43;;;4.25;;
40154;SDS011;25875;48.202;16.334;2023-05-07T03:38:52;5.88;;;5.10;;
40154;SDS011;25875;48.202;16.334;2023-05-07T03:41:21;8.43;;;5.72;;
40154;SDS011;25875;48.202;16.334;2023-05-07T03:43:48;8.57;;;6.97;;
40154;SDS011;25875;48.202;16.334;2023-05-07T03:46:14;8.05;;;6.55;;
40154;SDS011;25875;48.202;16.334;2023-05-07T03:48:41;8.00;;;6.70;;
40154;SDS011;25875;48.202;16.334;2023-05-07T03:51:08;7.95;;;6.07;;
40154;SDS011;25875;48.202;16.334;2023-05-07T03:53:35;8.77;;;6.45;;
40154;SDS011;25875;48.202;16.334;2023-05-07T03:56:02;8.13;;;6.53;;
40154;SDS011;25875;48.202;16.334;2023-05-07T03:58:31;6.75;;;5.68;;
40154;SDS011;25875;48.202;16.334;2023-05-07T04:00:57;8.27;;;6.32;;
40154;SDS011;25875;48.202;16.334;2023-05-07T04:03:25;8.88;;;6.63;;
40154;SDS011;25875;48.202;16.334;2023-05-07T04:05:51;7.55;;;6.63;;
40154;SDS011;25875;48.202;16.334;2023-05-07T04:08:18;8.52;;;7.07;;
40154;SDS011;25875;48.202;16.334;2023-05-07T04:10:45;8.60;;;7.53;;
40154;SDS011;25875;48.202;16.334;2023-05-07T04:13:12;10.15;;;7.38;;
40154;SDS011;25875;48.202;16.334;2023-05-07T04:15:40;9.25;;;7.60;;
40154;SDS011;25875;48.202;16.334;2023-05-07T04:18:07;8.40;;;7.57;;
40154;SDS011;25875;48.202;16.334;2023-05-07T04:20:34;9.65;;;7.85;;
40154;SDS011;25875;48.202;16.334;2023-05-07T04:23:02;8.88;;;7.82;;
40154;SDS011;25875;48.202;16.334;2023-05-07T04:25:29;10.45;;;9.38;;
40154;SDS011;25875;48.202;16.334;2023-05-07T04:27:56;10.45;;;9.40;;
40154;SDS011;25875;48.202;16.334;2023-05-07T04:30:22;9.60;;;8.50;;
40154;SDS011;25875;48.202;16.334;2023-05-07T04:32:51;9.50;;;8.35;;
40154;SDS011;25875;48.202;16.334;2023-05-07T04:35:19;8.73;;;7.82;;
40154;SDS011;25875;48.202;16.334;2023-05-07T04:37:45;9.15;;;8.25;;
40154;SDS011;25875;48.202;16.334;2023-05-07T04:40:12;8.73;;;7.88;;
40154;SDS011;25875;48.202;16.334;2023-05-07T04:42:39;7.78;;;7.05;;
40154;SDS011;25875;48.202;16.334;2023-05-07T04:45:06;7.78;;;6.88;;
40154;SDS011;25875;48.202;16.334;2023-05-07T04:47:33;8.85;;;7.95;;
40154;SDS011;25875;48.202;16.334;2023-05-07T04:50:02;8.93;;;8.02;;
40154;SDS011;25875;48.202;16.334;2023-05-07T04:52:29;8.98;;;8.07;;
40154;SDS011;25875;48.202;16.334;2023-05-07T04:54:56;15.10;;;10.55;;
40154;SDS011;25875;48.202;16.334;2023-05-07T04:57:26;11.05;;;9.85;;
40154;SDS011;25875;48.202;16.334;2023-05-07T04:59:53;13.32;;;12.02;;
40154;SDS011;25875;48.202;16.334;2023-05-07T05:02:20;13.38;;;11.88;;
40154;SDS011;25875;48.202;16.334;2023-05-07T05:04:48;13.23;;;11.73;;
40154;SDS011;25875;48.202;16.334;2023-05-07T05:07:16;14.25;;;11.90;;
40154;SDS011;25875;48.202;16.334;2023-05-07T05:09:43;13.63;;;12.23;;
40154;SDS011;25875;48.202;16.334;2023-05-07T05:12:10;13.27;;;11.77;;
40154;SDS011;25875;48.202;16.334;2023-05-07T05:14:36;12.52;;;11.00;;
40154;SDS011;25875;48.202;16.334;2023-05-07T05:17:03;13.90;;;12.60;;
40154;SDS011;25875;48.202;16.334;2023-05-07T05:19:30;14.05;;;12.30;;
40154;SDS011;25875;48.202;16.334;2023-05-07T05:21:56;13.55;;;12.05;;
40154;SDS011;25875;48.202;16.334;2023-05-07T05:24:25;12.90;;;11.68;;
40154;SDS011;25875;48.202;16.334;2023-05-07T05:26:52;14.70;;;13.10;;
40154;SDS011;25875;48.202;16.334;2023-05-07T05:29:20;13.57;;;12.25;;
40154;SDS011;25875;48.202;16.334;2023-05-07T05:31:46;14.98;;;13.48;;
40154;SDS011;25875;48.202;16.334;2023-05-07T05:34:13;15.52;;;13.93;;
40154;SDS011;25875;48.202;16.334;2023-05-07T05:36:40;15.82;;;14.13;;
40154;SDS011;25875;48.202;16.334;2023-05-07T05:39:07;15.00;;;13.27;;
40154;SDS011;25875;48.202;16.334;2023-05-07T05:41:35;15.57;;;13.95;;
40154;SDS011;25875;48.202;16.334;2023-05-07T05:44:02;14.32;;;12.63;;
40154;SDS011;25875;48.202;16.334;2023-05-07T05:46:29;18.30;;;15.15;;
40154;SDS011;25875;48.202;16.334;2023-05-07T05:48:56;15.98;;;14.20;;
40154;SDS011;25875;48.202;16.334;2023-05-07T05:51:23;16.83;;;15.13;;
40154;SDS011;25875;48.202;16.334;2023-05-07T05:53:50;15.63;;;13.35;;
40154;SDS011;25875;48.202;16.334;2023-05-07T05:56:17;17.00;;;15.30;;
40154;SDS011;25875;48.202;16.334;2023-05-07T05:58:45;16.67;;;14.93;;
40154;SDS011;25875;48.202;16.334;2023-05-07T06:01:12;15.82;;;13.57;;
40154;SDS011;25875;48.202;16.334;2023-05-07T06:03:39;16.95;;;15.15;;
40154;SDS011;25875;48.202;16.334;2023-05-07T06:06:06;15.32;;;13.77;;
40154;SDS011;25875;48.202;16.334;2023-05-07T06:08:33;16.08;;;14.48;;
40154;SDS011;25875;48.202;16.334;2023-05-07T06:11:00;15.80;;;14.18;;
40154;SDS011;25875;48.202;16.334;2023-05-07T06:13:27;19.40;;;15.20;;
40154;SDS011;25875;48.202;16.334;2023-05-07T06:15:56;16.08;;;13.82;;
40154;SDS011;25875;48.202;16.334;2023-05-07T06:18:23;13.88;;;12.35;;
40154;SDS011;25875;48.202;16.334;2023-05-07T06:20:50;15.13;;;13.55;;
40154;SDS011;25875;48.202;16.334;2023-05-07T06:23:17;16.85;;;15.00;;
40154;SDS011;25875;48.202;16.334;2023-05-07T06:25:47;14.35;;;12.48;;
40154;SDS011;25875;48.202;16.334;2023-05-07T06:28:15;14.70;;;13.20;;
40154;SDS011;25875;48.202;16.334;2023-05-07T06:30:41;15.57;;;13.98;;
40154;SDS011;25875;48.202;16.334;2023-05-07T06:33:10;14.52;;;13.02;;
40154;SDS011;25875;48.202;16.334;2023-05-07T06:35:36;15.98;;;14.23;;
40154;SDS011;25875;48.202;16.334;2023-05-07T06:38:03;14.25;;;12.80;;
40154;SDS011;25875;48.202;16.334;2023-05-07T06:40:30;15.30;;;12.90;;
40154;SDS011;25875;48.202;16.334;2023-05-07T06:42:56;15.13;;;13.52;;
40154;SDS011;25875;48.202;16.334;2023-05-07T06:45:23;15.77;;;13.23;;
40154;SDS011;25875;48.202;16.334;2023-05-07T06:47:51;14.55;;;13.15;;
40154;SDS011;25875;48.202;16.334;2023-05-07T06:50:20;14.68;;;13.18;;
40154;SDS011;25875;48.202;16.334;2023-05-07T06:52:46;16.05;;;14.45;;
40154;SDS011;25875;48.202;16.334;2023-05-07T06:55:14;16.05;;;14.30;;
40154;SDS011;25875;48.202;16.334;2023-05-07T06:57:41;15.68;;;14.05;;
40154;SDS011;25875;48.202;16.334;2023-05-07T07:00:08;15.20;;;13.70;;
40154;SDS011;25875;48.202;16.334;2023-05-07T07:02:36;13.52;;;12.18;;
40154;SDS011;25875;48.202;16.334;2023-05-07T07:05:02;14.07;;;12.57;;
40154;SDS011;25875;48.202;16.334;2023-05-07T07:07:32;15.52;;;13.73;;
40154;SDS011;25875;48.202;16.334;2023-05-07T07:09:58;15.50;;;14.00;;
40154;SDS011;25875;48.202;16.334;2023-05-07T07:12:25;18.70;;;14.13;;
40154;SDS011;25875;48.202;16.334;2023-05-07T07:14:52;16.20;;;14.27;;
40154;SDS011;25875;48.202;16.334;2023-05-07T07:17:18;17.92;;;14.90;;
40154;SDS011;25875;48.202;16.334;2023-05-07T07:19:45;13.95;;;12.60;;
40154;SDS011;25875;48.202;16.334;2023-05-07T07:22:13;16.48;;;14.05;;
40154;SDS011;25875;48.202;16.334;2023-05-07T07:24:41;15.50;;;14.00;;
40154;SDS011;25875;48.202;16.334;2023-05-07T07:27:08;15.48;;;13.15;;
40154;SDS011;25875;48.202;16.334;2023-05-07T07:29:35;11.73;;;10.63;;
40154;SDS011;25875;48.202;16.334;2023-05-07T07:32:01;14.63;;;12.45;;
40154;SDS011;25875;48.202;16.334;2023-05-07T07:34:28;15.60;;;13.68;;
40154;SDS011;25875;48.202;16.334;2023-05-07T07:36:55;13.88;;;12.57;;
40154;SDS011;25875;48.202;16.334;2023-05-07T07:39:22;14.18;;;12.77;;
40154;SDS011;25875;48.202;16.334;2023-05-07T07:41:50;13.60;;;12.20;;
40154;SDS011;25875;48.202;16.334;2023-05-07T07:44:17;12.30;;;11.10;;
40154;SDS011;25875;48.202;16.334;2023-05-07T07:46:43;12.30;;;11.07;;
40154;SDS011;25875;48.202;16.334;2023-05-07T07:49:10;12.07;;;10.35;;
40154;SDS011;25875;48.202;16.334;2023-05-07T07:51:37;12.77;;;10.48;;
40154;SDS011;25875;48.202;16.334;2023-05-07T07:54:03;12.57;;;11.38;;
40154;SDS011;25875;48.202;16.334;2023-05-07T07:56:31;12.40;;;11.13;;
40154;SDS011;25875;48.202;16.334;2023-05-07T07:59:00;12.73;;;11.43;;
40154;SDS011;25875;48.202;16.334;2023-05-07T08:01:28;11.80;;;10.32;;
40154;SDS011;25875;48.202;16.334;2023-05-07T08:03:56;13.77;;;11.55;;
40154;SDS011;25875;48.202;16.334;2023-05-07T08:06:23;13.77;;;11.40;;
40154;SDS011;25875;48.202;16.334;2023-05-07T08:08:51;16.73;;;13.90;;
40154;SDS011;25875;48.202;16.334;2023-05-07T08:11:18;13.68;;;12.30;;
40154;SDS011;25875;48.202;16.334;2023-05-07T08:13:45;13.30;;;11.90;;
40154;SDS011;25875;48.202;16.334;2023-05-07T08:16:13;14.43;;;12.60;;
40154;SDS011;25875;48.202;16.334;2023-05-07T08:18:40;12.40;;;11.05;;
40154;SDS011;25875;48.202;16.334;2023-05-07T08:21:07;11.45;;;10.25;;
40154;SDS011;25875;48.202;16.334;2023-05-07T08:23:34;12.18;;;10.98;;
40154;SDS011;25875;48.202;16.334;2023-05-07T08:26:01;13.75;;;12.00;;
40154;SDS011;25875;48.202;16.334;2023-05-07T08:28:27;12.18;;;10.98;;
40154;SDS011;25875;48.202;16.334;2023-05-07T08:30:54;11.88;;;10.68;;
40154;SDS011;25875;48.202;16.334;2023-05-07T08:33:27;14.75;;;13.15;;
40154;SDS011;25875;48.202;16.334;2023-05-07T08:35:53;12.70;;;11.38;;
40154;SDS011;25875;48.202;16.334;2023-05-07T08:38:20;14.88;;;11.57;;
40154;SDS011;25875;48.202;16.334;2023-05-07T08:40:47;15.55;;;10.40;;
40154;SDS011;25875;48.202;16.334;2023-05-07T08:43:14;11.68;;;10.10;;
40154;SDS011;25875;48.202;16.334;2023-05-07T08:45:41;13.20;;;10.63;;
40154;SDS011;25875;48.202;16.334;2023-05-07T08:48:14;12.68;;;11.38;;
40154;SDS011;25875;48.202;16.334;2023-05-07T08:50:43;14.20;;;11.27;;
40154;SDS011;25875;48.202;16.334;2023-05-07T08:53:10;10.40;;;9.32;;
40154;SDS011;25875;48.202;16.334;2023-05-07T08:55:37;10.63;;;9.60;;
40154;SDS011;25875;48.202;16.334;2023-05-07T08:58:04;10.52;;;9.20;;
40154;SDS011;25875;48.202;16.334;2023-05-07T09:00:32;12.02;;;10.82;;
40154;SDS011;25875;48.202;16.334;2023-05-07T09:02:59;11.65;;;9.93;;
40154;SDS011;25875;48.202;16.334;2023-05-07T09:05:26;10.57;;;9.48;;
40154;SDS011;25875;48.202;16.334;2023-05-07T09:07:54;10.60;;;9.50;;
40154;SDS011;25875;48.202;16.334;2023-05-07T09:10:21;11.75;;;9.68;;
40154;SDS011;25875;48.202;16.334;2023-05-07T09:12:48;12.48;;;8.63;;
40154;SDS011;25875;48.202;16.334;2023-05-07T09:15:15;9.07;;;8.18;;
40154;SDS011;25875;48.202;16.334;2023-05-07T09:17:42;9.77;;;8.85;;
40154;SDS011;25875;48.202;16.334;2023-05-07T09:20:10;12.48;;;9.68;;
40154;SDS011;25875;48.202;16.334;2023-05-07T09:22:37;10.88;;;9.77;;
40154;SDS011;25875;48.202;16.334;2023-05-07T09:25:06;11.15;;;9.00;;
40154;SDS011;25875;48.202;16.334;2023-05-07T09:27:34;11.35;;;10.15;;
40154;SDS011;25875;48.202;16.334;2023-05-07T09:30:03;10.10;;;9.10;;
40154;SDS011;25875;48.202;16.334;2023-05-07T09:32:34;10.75;;;9.20;;
40154;SDS011;25875;48.202;16.334;2023-05-07T09:35:01;9.88;;;8.88;;
40154;SDS011;25875;48.202;16.334;2023-05-07T09:37:28;10.48;;;9.45;;
40154;SDS011;25875;48.202;16.334;2023-05-07T09:39:57;10.40;;;9.40;;
40154;SDS011;25875;48.202;16.334;2023-05-07T09:42:26;12.18;;;8.65;;
40154;SDS011;25875;48.202;16.334;2023-05-07T09:44:53;10.35;;;8.45;;
40154;SDS011;25875;48.202;16.334;2023-05-07T09:47:20;10.02;;;8.32;;
40154;SDS011;25875;48.202;16.334;2023-05-07T09:49:50;9.82;;;8.82;;
40154;SDS011;25875;48.202;16.334;2023-05-07T09:52:22;10.85;;;8.73;;
40154;SDS011;25875;48.202;16.334;2023-05-07T09:54:53;9.82;;;8.55;;
40154;SDS011;25875;48.202;16.334;2023-05-07T09:57:25;9.55;;;8.50;;
40154;SDS011;25875;48.202;16.334;2023-05-07T09:59:53;10.48;;;9.38;;
40154;SDS011;25875;48.202;16.334;2023-05-07T10:02:22;9.40;;;7.90;;
40154;SDS011;25875;48.202;16.334;2023-05-07T10:04:51;8.95;;;7.95;;
40154;SDS011;25875;48.202;16.334;2023-05-07T10:07:19;8.70;;;7.53;;
40154;SDS011;25875;48.202;16.334;2023-05-07T10:09:47;9.25;;;7.78;;
40154;SDS011;25875;48.202;16.334;2023-05-07T10:12:14;8.70;;;7.80;;
40154;SDS011;25875;48.202;16.334;2023-05-07T10:14:43;9.00;;;8.10;;
40154;SDS011;25875;48.202;16.334;2023-05-07T10:17:11;10.02;;;8.98;;
40154;SDS011;25875;48.202;16.334;2023-05-07T10:19:38;8.60;;;7.80;;
40154;SDS011;25875;48.202;16.334;2023-05-07T10:22:05;8.52;;;7.68;;
40154;SDS011;25875;48.202;16.334;2023-05-07T10:24:34;10.02;;;8.80;;
40154;SDS011;25875;48.202;16.334;2023-05-07T10:27:04;9.75;;;8.35;;
40154;SDS011;25875;48.202;16.334;2023-05-07T10:29:37;8.63;;;7.72;;
40154;SDS011;25875;48.202;16.334;2023-05-07T10:32:19;8.73;;;7.85;;
40154;SDS011;25875;48.202;16.334;2023-05-07T10:35:00;9.05;;;8.15;;
40154;SDS011;25875;48.202;16.334;2023-05-07T10:37:29;10.93;;;8.95;;
40154;SDS011;25875;48.202;16.334;2023-05-07T10:39:56;8.45;;;7.57;;
40154;SDS011;25875;48.202;16.334;2023-05-07T10:42:23;8.75;;;7.72;;
40154;SDS011;25875;48.202;16.334;2023-05-07T10:44:50;9.65;;;8.00;;
40154;SDS011;25875;48.202;16.334;2023-05-07T10:47:18;9.85;;;8.88;;
40154;SDS011;25875;48.202;16.334;2023-05-07T10:58:51;9.50;;;7.97;;
40154;SDS011;25875;48.202;16.334;2023-05-07T11:04:18;9.02;;;8.13;;
40154;SDS011;25875;48.202;16.334;2023-05-07T11:10:02;9.13;;;8.15;;
40154;SDS011;25875;48.202;16.334;2023-05-07T11:12:46;9.68;;;8.10;;
40154;SDS011;25875;48.202;16.334;2023-05-07T11:15:14;7.95;;;7.15;;
40154;SDS011;25875;48.202;16.334;2023-05-07T11:17:52;12.48;;;7.35;;
40154;SDS011;25875;48.202;16.334;2023-05-07T11:20:21;7.97;;;7.05;;
40154;SDS011;25875;48.202;16.334;2023-05-07T11:26:27;8.20;;;7.13;;
40154;SDS011;25875;48.202;16.334;2023-05-07T11:28:56;8.23;;;6.88;;
40154;SDS011;25875;48.202;16.334;2023-05-07T11:31:26;9.27;;;7.07;;
40154;SDS011;25875;48.202;16.334;2023-05-07T11:33:55;8.10;;;6.22;;
40154;SDS011;25875;48.202;16.334;2023-05-07T11:36:23;7.60;;;6.80;;
40154;SDS011;25875;48.202;16.334;2023-05-07T11:38:51;8.60;;;6.47;;
40154;SDS011;25875;48.202;16.334;2023-05-07T11:41:18;8.02;;;6.97;;
40154;SDS011;25875;48.202;16.334;2023-05-07T11:43:53;8.52;;;7.68;;
40154;SDS011;25875;48.202;16.334;2023-05-07T11:46:21;11.65;;;9.52;;
40154;SDS011;25875;48.202;16.334;2023-05-07T11:48:48;11.65;;;8.75;;
40154;SDS011;25875;48.202;16.334;2023-05-07T11:51:19;9.35;;;7.20;;
40154;SDS011;25875;48.202;16.334;2023-05-07T11:53:47;9.52;;;8.52;;
40154;SDS011;25875;48.202;16.334;2023-05-07T11:56:14;8.43;;;7.53;;
40154;SDS011;25875;48.202;16.334;2023-05-07T11:58:42;8.18;;;7.38;;
40154;SDS011;25875;48.202;16.334;2023-05-07T12:01:11;7.55;;;6.75;;
40154;SDS011;25875;48.202;16.334;2023-05-07T12:03:40;10.27;;;8.65;;
40154;SDS011;25875;48.202;16.334;2023-05-07T12:06:09;7.38;;;6.57;;
40154;SDS011;25875;48.202;16.334;2023-05-07T12:08:36;7.85;;;6.75;;
40154;SDS011;25875;48.202;16.334;2023-05-07T12:11:05;10.60;;;7.82;;
40154;SDS011;25875;48.202;16.334;2023-05-07T12:13:34;10.70;;;7.22;;
40154;SDS011;25875;48.202;16.334;2023-05-07T12:16:00;7.93;;;7.05;;
40154;SDS011;25875;48.202;16.334;2023-05-07T12:18:28;8.70;;;7.20;;
40154;SDS011;25875;48.202;16.334;2023-05-07T12:20:56;7.10;;;6.40;;
40154;SDS011;25875;48.202;16.334;2023-05-07T12:23:23;9.13;;;6.93;;
40154;SDS011;25875;48.202;16.334;2023-05-07T12:25:50;7.28;;;6.55;;
40154;SDS011;25875;48.202;16.334;2023-05-07T12:28:18;8.40;;;7.28;;
40154;SDS011;25875;48.202;16.334;2023-05-07T12:30:46;9.57;;;7.95;;
40154;SDS011;25875;48.202;16.334;2023-05-07T12:33:16;8.90;;;7.53;;
40154;SDS011;25875;48.202;16.334;2023-05-07T12:35:43;7.70;;;6.53;;
40154;SDS011;25875;48.202;16.334;2023-05-07T12:38:10;10.70;;;9.20;;
40154;SDS011;25875;48.202;16.334;2023-05-07T12:40:38;8.73;;;7.43;;
40154;SDS011;25875;48.202;16.334;2023-05-07T12:43:06;8.35;;;7.45;;
40154;SDS011;25875;48.202;16.334;2023-05-07T12:45:37;9.00;;;7.65;;
40154;SDS011;25875;48.202;16.334;2023-05-07T12:48:04;7.97;;;6.90;;
40154;SDS011;25875;48.202;16.334;2023-05-07T12:50:31;8.88;;;7.05;;
40154;SDS011;25875;48.202;16.334;2023-05-07T12:52:59;7.65;;;6.65;;
40154;SDS011;25875;48.202;16.334;2023-05-07T12:55:28;8.65;;;7.75;;
40154;SDS011;25875;48.202;16.334;2023-05-07T12:57:55;8.43;;;7.63;;
40154;SDS011;25875;48.202;16.334;2023-05-07T13:00:35;9.18;;;8.02;;
40154;SDS011;25875;48.202;16.334;2023-05-07T13:03:04;7.32;;;6.55;;
40154;SDS011;25875;48.202;16.334;2023-05-07T13:05:31;7.28;;;6.38;;
40154;SDS011;25875;48.202;16.334;2023-05-07T13:07:58;7.43;;;6.22;;
40154;SDS011;25875;48.202;16.334;2023-05-07T13:10:25;8.10;;;7.13;;
40154;SDS011;25875;48.202;16.334;2023-05-07T13:12:53;7.72;;;6.00;;
40154;SDS011;25875;48.202;16.334;2023-05-07T13:15:19;7.25;;;6.47;;
40154;SDS011;25875;48.202;16.334;2023-05-07T13:17:47;6.97;;;6.25;;
40154;SDS011;25875;48.202;16.334;2023-05-07T13:20:15;6.55;;;5.85;;
40154;SDS011;25875;48.202;16.334;2023-05-07T13:22:42;6.00;;;5.40;;
40154;SDS011;25875;48.202;16.334;2023-05-07T13:25:09;6.95;;;5.70;;
40154;SDS011;25875;48.202;16.334;2023-05-07T13:27:36;6.40;;;5.80;;
40154;SDS011;25875;48.202;16.334;2023-05-07T13:30:03;9.60;;;4.90;;
40154;SDS011;25875;48.202;16.334;2023-05-07T13:32:31;6.68;;;6.03;;
40154;SDS011;25875;48.202;16.334;2023-05-07T13:34:58;8.65;;;5.88;;
40154;SDS011;25875;48.202;16.334;2023-05-07T13:37:26;6.05;;;5.45;;
40154;SDS011;25875;48.202;16.334;2023-05-07T13:39:53;5.90;;;5.07;;
40154;SDS011;25875;48.202;16.334;2023-05-07T13:42:20;5.75;;;5.15;;
40154;SDS011;25875;48.202;16.334;2023-05-07T13:44:46;6.40;;;5.68;;
40154;SDS011;25875;48.202;16.334;2023-05-07T13:47:13;7.43;;;6.13;;
40154;SDS011;25875;48.202;16.334;2023-05-07T13:49:40;8.80;;;6.70;;
40154;SDS011;25875;48.202;16.334;2023-05-07T13:52:07;7.25;;;6.55;;
40154;SDS011;25875;48.202;16.334;2023-05-07T13:54:35;6.05;;;5.38;;
40154;SDS011;25875;48.202;16.334;2023-05-07T13:57:02;5.93;;;4.78;;
40154;SDS011;25875;48.202;16.334;2023-05-07T13:59:29;6.78;;;4.50;;
40154;SDS011;25875;48.202;16.334;2023-05-07T14:01:55;6.57;;;4.75;;
40154;SDS011;25875;48.202;16.334;2023-05-07T14:04:22;5.43;;;4.47;;
40154;SDS011;25875;48.202;16.334;2023-05-07T14:06:49;5.90;;;5.20;;
40154;SDS011;25875;48.202;16.334;2023-05-07T14:09:15;5.75;;;5.15;;
40154;SDS011;25875;48.202;16.334;2023-05-07T14:11:44;7.95;;;6.28;;
40154;SDS011;25875;48.202;16.334;2023-05-07T14:14:12;5.80;;;5.20;;
40154;SDS011;25875;48.202;16.334;2023-05-07T14:16:39;6.32;;;4.57;;
40154;SDS011;25875;48.202;16.334;2023-05-07T14:19:06;6.10;;;4.97;;
40154;SDS011;25875;48.202;16.334;2023-05-07T14:21:32;7.00;;;6.20;;
40154;SDS011;25875;48.202;16.334;2023-05-07T14:23:59;7.60;;;6.28;;
40154;SDS011;25875;48.202;16.334;2023-05-07T14:26:26;6.00;;;5.10;;
40154;SDS011;25875;48.202;16.334;2023-05-07T14:28:54;6.45;;;5.30;;
40154;SDS011;25875;48.202;16.334;2023-05-07T14:31:23;6.45;;;5.53;;
40154;SDS011;25875;48.202;16.334;2023-05-07T14:33:50;6.80;;;5.38;;
40154;SDS011;25875;48.202;16.334;2023-05-07T14:36:18;6.72;;;5.32;;
40154;SDS011;25875;48.202;16.334;2023-05-07T14:38:46;8.77;;;7.78;;
40154;SDS011;25875;48.202;16.334;2023-05-07T14:41:13;7.53;;;6.28;;
40154;SDS011;25875;48.202;16.334;2023-05-07T14:43:40;5.85;;;4.88;;
40154;SDS011;25875;48.202;16.334;2023-05-07T14:46:08;6.13;;;5.10;;
40154;SDS011;25875;48.202;16.334;2023-05-07T14:48:35;5.30;;;4.15;;